sensor_id;sensor_type;location;lat;lon;timestamp;P1;durP1;ratioP1;P2;durP2;ratioP2
23082;SDS011;11709;52.420;10.538;2023-04-19T00:01:32;51.80;;;49.23;;
23082;SDS011;11709;52.420;10.538;2023-04-19T00:05:35;51.55;;;49.08;;
23082;SDS011;11709;52.420;10.538;2023-04-19T00:09:41;50.08;;;47.58;;
23082;SDS011;11709;52.420;10.538;2023-04-19T00:13:43;49.25;;;46.75;;
23082;SDS011;11709;52.420;10.538;2023-04-19T00:17:46;45.20;;;42.95;;
23082;SDS011;11709;52.420;10.538;2023-04-19T00:21:48;47.93;;;45.55;;
23082;SDS011;11709;52.420;10.538;2023-04-19T00:25:53;41.23;;;39.15;;
23082;SDS011;11709;52.420;10.538;2023-04-19T00:29:55;43.23;;;40.85;;
23082;SDS011;11709;52.420;10.538;2023-04-19T00:33:58;41.50;;;39.42;;
23082;SDS011;11709;52.420;10.538;2023-04-19T00:38:00;40.67;;;38.40;;
23082;SDS011;11709;52.420;10.538;2023-04-19T00:42:03;38.85;;;36.88;;
23082;SDS011;11709;52.420;10.538;2023-04-19T00:46:05;49.85;;;47.38;;
23082;SDS011;11709;52.420;10.538;2023-04-19T00:50:08;59.15;;;56.02;;
23082;SDS011;11709;52.420;10.538;2023-04-19T00:54:12;56.55;;;53.90;;
23082;SDS011;11709;52.420;10.538;2023-04-19T00:58:15;65.28;;;62.13;;
23082;SDS011;11709;52.420;10.538;2023-04-19T01:02:18;58.98;;;56.02;;
23082;SDS011;11709;52.420;10.538;2023-04-19T01:06:21;54.95;;;52.30;;
23082;SDS011;11709;52.420;10.538;2023-04-19T01:10:24;52.03;;;49.13;;
23082;SDS011;11709;52.420;10.538;2023-04-19T01:14:27;38.85;;;36.93;;
23082;SDS011;11709;52.420;10.538;2023-04-19T01:18:29;42.85;;;40.78;;
23082;SDS011;11709;52.420;10.538;2023-04-19T01:22:34;41.40;;;39.38;;
23082;SDS011;11709;52.420;10.538;2023-04-19T01:26:38;40.33;;;38.33;;
23082;SDS011;11709;52.420;10.538;2023-04-19T01:30:41;40.38;;;38.28;;
23082;SDS011;11709;52.420;10.538;2023-04-19T01:34:43;34.10;;;32.33;;
23082;SDS011;11709;52.420;10.538;2023-04-19T01:38:46;39.13;;;36.80;;
23082;SDS011;11709;52.420;10.538;2023-04-19T01:42:48;31.95;;;30.25;;
23082;SDS011;11709;52.420;10.538;2023-04-19T01:46:51;33.60;;;31.93;;
23082;SDS011;11709;52.420;10.538;2023-04-19T01:50:54;31.20;;;29.52;;
23082;SDS011;11709;52.420;10.538;2023-04-19T01:54:57;30.08;;;28.47;;
23082;SDS011;11709;52.420;10.538;2023-04-19T01:58:59;32.35;;;30.37;;
23082;SDS011;11709;52.420;10.538;2023-04-19T02:03:02;33.88;;;32.08;;
23082;SDS011;11709;52.420;10.538;2023-04-19T02:07:04;29.95;;;28.42;;
23082;SDS011;11709;52.420;10.538;2023-04-19T02:11:08;38.42;;;36.45;;
23082;SDS011;11709;52.420;10.538;2023-04-19T02:15:11;38.05;;;35.98;;
23082;SDS011;11709;52.420;10.538;2023-04-19T02:19:13;38.63;;;36.58;;
23082;SDS011;11709;52.420;10.538;2023-04-19T02:23:16;51.45;;;48.75;;
23082;SDS011;11709;52.420;10.538;2023-04-19T02:27:18;52.25;;;49.70;;
23082;SDS011;11709;52.420;10.538;2023-04-19T02:31:21;47.00;;;44.75;;
23082;SDS011;11709;52.420;10.538;2023-04-19T02:35:23;45.95;;;43.55;;
23082;SDS011;11709;52.420;10.538;2023-04-19T02:39:26;40.48;;;38.25;;
23082;SDS011;11709;52.420;10.538;2023-04-19T02:43:28;33.35;;;31.60;;
23082;SDS011;11709;52.420;10.538;2023-04-19T02:47:31;32.42;;;30.77;;
23082;SDS011;11709;52.420;10.538;2023-04-19T02:51:33;29.35;;;27.85;;
23082;SDS011;11709;52.420;10.538;2023-04-19T02:55:36;28.50;;;27.00;;
23082;SDS011;11709;52.420;10.538;2023-04-19T02:59:38;30.68;;;28.95;;
23082;SDS011;11709;52.420;10.538;2023-04-19T03:03:41;28.67;;;27.20;;
23082;SDS011;11709;52.420;10.538;2023-04-19T03:07:43;29.55;;;28.05;;
23082;SDS011;11709;52.420;10.538;2023-04-19T03:11:46;29.35;;;27.80;;
23082;SDS011;11709;52.420;10.538;2023-04-19T03:15:49;27.35;;;25.77;;
23082;SDS011;11709;52.420;10.538;2023-04-19T03:19:51;22.13;;;20.72;;
23082;SDS011;11709;52.420;10.538;2023-04-19T03:23:54;23.52;;;22.30;;
23082;SDS011;11709;52.420;10.538;2023-04-19T03:27:56;27.27;;;25.57;;
23082;SDS011;11709;52.420;10.538;2023-04-19T03:31:59;24.82;;;23.50;;
23082;SDS011;11709;52.420;10.538;2023-04-19T03:36:02;27.32;;;25.80;;
23082;SDS011;11709;52.420;10.538;2023-04-19T03:40:04;27.85;;;26.25;;
23082;SDS011;11709;52.420;10.538;2023-04-19T03:44:08;25.25;;;23.92;;
23082;SDS011;11709;52.420;10.538;2023-04-19T03:48:10;26.20;;;24.80;;
23082;SDS011;11709;52.420;10.538;2023-04-19T03:52:13;22.42;;;21.12;;
23082;SDS011;11709;52.420;10.538;2023-04-19T03:56:15;21.30;;;20.00;;
23082;SDS011;11709;52.420;10.538;2023-04-19T04:00:18;21.57;;;20.12;;
23082;SDS011;11709;52.420;10.538;2023-04-19T04:04:20;20.82;;;19.73;;
23082;SDS011;11709;52.420;10.538;2023-04-19T04:08:23;23.47;;;22.10;;
23082;SDS011;11709;52.420;10.538;2023-04-19T04:12:25;21.62;;;20.43;;
23082;SDS011;11709;52.420;10.538;2023-04-19T04:16:28;17.23;;;16.25;;
23082;SDS011;11709;52.420;10.538;2023-04-19T04:20:30;16.93;;;15.72;;
23082;SDS011;11709;52.420;10.538;2023-04-19T04:24:39;20.12;;;18.92;;
23082;SDS011;11709;52.420;10.538;2023-04-19T04:28:41;20.25;;;19.07;;
23082;SDS011;11709;52.420;10.538;2023-04-19T04:32:44;20.00;;;18.82;;
23082;SDS011;11709;52.420;10.538;2023-04-19T04:36:47;20.02;;;18.92;;
23082;SDS011;11709;52.420;10.538;2023-04-19T04:40:50;22.10;;;20.90;;
23082;SDS011;11709;52.420;10.538;2023-04-19T04:44:54;21.35;;;20.12;;
23082;SDS011;11709;52.420;10.538;2023-04-19T04:48:57;21.52;;;20.17;;
23082;SDS011;11709;52.420;10.538;2023-04-19T04:53:00;18.17;;;17.07;;
23082;SDS011;11709;52.420;10.538;2023-04-19T04:57:02;18.35;;;17.05;;
23082;SDS011;11709;52.420;10.538;2023-04-19T05:01:05;20.02;;;18.90;;
23082;SDS011;11709;52.420;10.538;2023-04-19T05:05:07;21.30;;;20.15;;
23082;SDS011;11709;52.420;10.538;2023-04-19T05:09:12;23.22;;;22.02;;
23082;SDS011;11709;52.420;10.538;2023-04-19T05:13:14;26.20;;;24.67;;
23082;SDS011;11709;52.420;10.538;2023-04-19T05:17:17;24.25;;;22.87;;
23082;SDS011;11709;52.420;10.538;2023-04-19T05:21:20;20.62;;;19.40;;
23082;SDS011;11709;52.420;10.538;2023-04-19T05:25:23;27.00;;;25.48;;
23082;SDS011;11709;52.420;10.538;2023-04-19T05:29:27;23.87;;;22.52;;
23082;SDS011;11709;52.420;10.538;2023-04-19T05:33:29;21.33;;;20.02;;
23082;SDS011;11709;52.420;10.538;2023-04-19T05:37:32;23.60;;;22.40;;
23082;SDS011;11709;52.420;10.538;2023-04-19T05:41:36;24.87;;;23.60;;
23082;SDS011;11709;52.420;10.538;2023-04-19T05:45:38;27.50;;;25.95;;
23082;SDS011;11709;52.420;10.538;2023-04-19T05:49:41;25.50;;;24.07;;
23082;SDS011;11709;52.420;10.538;2023-04-19T05:53:44;24.32;;;22.95;;
23082;SDS011;11709;52.420;10.538;2023-04-19T05:57:49;26.15;;;24.77;;
23082;SDS011;11709;52.420;10.538;2023-04-19T06:01:50;23.22;;;21.95;;
23082;SDS011;11709;52.420;10.538;2023-04-19T06:05:53;22.02;;;20.82;;
23082;SDS011;11709;52.420;10.538;2023-04-19T06:09:57;25.10;;;23.75;;
23082;SDS011;11709;52.420;10.538;2023-04-19T06:14:00;23.15;;;21.85;;
23082;SDS011;11709;52.420;10.538;2023-04-19T06:18:02;22.90;;;21.60;;
23082;SDS011;11709;52.420;10.538;2023-04-19T06:22:06;24.43;;;23.10;;
23082;SDS011;11709;52.420;10.538;2023-04-19T06:26:09;27.50;;;26.05;;
23082;SDS011;11709;52.420;10.538;2023-04-19T06:30:11;28.10;;;26.55;;
23082;SDS011;11709;52.420;10.538;2023-04-19T06:34:14;27.37;;;25.85;;
23082;SDS011;11709;52.420;10.538;2023-04-19T06:38:17;25.85;;;24.30;;
23082;SDS011;11709;52.420;10.538;2023-04-19T06:42:19;30.40;;;28.85;;
23082;SDS011;11709;52.420;10.538;2023-04-19T06:46:23;30.15;;;28.52;;
23082;SDS011;11709;52.420;10.538;2023-04-19T06:50:27;31.00;;;29.35;;
23082;SDS011;11709;52.420;10.538;2023-04-19T06:54:29;31.27;;;29.67;;
23082;SDS011;11709;52.420;10.538;2023-04-19T06:58:32;32.03;;;30.20;;
23082;SDS011;11709;52.420;10.538;2023-04-19T07:02:34;34.65;;;32.73;;
23082;SDS011;11709;52.420;10.538;2023-04-19T07:06:37;31.87;;;30.17;;
23082;SDS011;11709;52.420;10.538;2023-04-19T07:10:40;31.40;;;29.72;;
23082;SDS011;11709;52.420;10.538;2023-04-19T07:14:43;31.25;;;29.55;;
23082;SDS011;11709;52.420;10.538;2023-04-19T07:18:46;39.60;;;37.25;;
23082;SDS011;11709;52.420;10.538;2023-04-19T07:22:48;35.48;;;33.67;;
23082;SDS011;11709;52.420;10.538;2023-04-19T07:26:50;34.88;;;33.18;;
23082;SDS011;11709;52.420;10.538;2023-04-19T07:30:53;36.35;;;34.53;;
23082;SDS011;11709;52.420;10.538;2023-04-19T07:34:56;33.25;;;31.50;;
23082;SDS011;11709;52.420;10.538;2023-04-19T07:38:58;34.63;;;32.75;;
23082;SDS011;11709;52.420;10.538;2023-04-19T07:43:01;28.62;;;27.17;;
23082;SDS011;11709;52.420;10.538;2023-04-19T07:47:03;30.85;;;29.23;;
23082;SDS011;11709;52.420;10.538;2023-04-19T07:51:10;30.12;;;28.52;;
23082;SDS011;11709;52.420;10.538;2023-04-19T07:55:13;34.70;;;32.88;;
23082;SDS011;11709;52.420;10.538;2023-04-19T07:59:16;34.20;;;32.35;;
23082;SDS011;11709;52.420;10.538;2023-04-19T08:03:18;32.08;;;30.43;;
23082;SDS011;11709;52.420;10.538;2023-04-19T08:07:21;32.88;;;31.23;;
23082;SDS011;11709;52.420;10.538;2023-04-19T08:11:25;29.57;;;28.12;;
23082;SDS011;11709;52.420;10.538;2023-04-19T08:15:28;31.70;;;30.00;;
23082;SDS011;11709;52.420;10.538;2023-04-19T08:19:30;31.90;;;30.30;;
23082;SDS011;11709;52.420;10.538;2023-04-19T08:23:33;33.38;;;31.60;;
23082;SDS011;11709;52.420;10.538;2023-04-19T08:27:37;37.98;;;36.05;;
23082;SDS011;11709;52.420;10.538;2023-04-19T08:31:42;34.48;;;32.73;;
23082;SDS011;11709;52.420;10.538;2023-04-19T08:35:45;36.13;;;34.23;;
23082;SDS011;11709;52.420;10.538;2023-04-19T08:39:47;35.92;;;34.10;;
23082;SDS011;11709;52.420;10.538;2023-04-19T08:43:51;34.03;;;32.35;;
23082;SDS011;11709;52.420;10.538;2023-04-19T08:47:55;35.03;;;33.18;;
23082;SDS011;11709;52.420;10.538;2023-04-19T08:51:59;31.35;;;29.72;;
23082;SDS011;11709;52.420;10.538;2023-04-19T08:56:02;34.53;;;32.70;;
23082;SDS011;11709;52.420;10.538;2023-04-19T09:00:07;32.15;;;30.48;;
23082;SDS011;11709;52.420;10.538;2023-04-19T09:04:11;30.00;;;28.35;;
23082;SDS011;11709;52.420;10.538;2023-04-19T09:08:23;32.50;;;30.90;;
23082;SDS011;11709;52.420;10.538;2023-04-19T09:12:30;30.80;;;29.10;;
23082;SDS011;11709;52.420;10.538;2023-04-19T09:16:32;32.65;;;31.00;;
23082;SDS011;11709;52.420;10.538;2023-04-19T09:20:43;31.17;;;29.48;;
23082;SDS011;11709;52.420;10.538;2023-04-19T09:24:46;38.20;;;36.15;;
23082;SDS011;11709;52.420;10.538;2023-04-19T09:29:07;40.78;;;38.35;;
23082;SDS011;11709;52.420;10.538;2023-04-19T09:33:00;36.77;;;34.95;;
23082;SDS011;11709;52.420;10.538;2023-04-19T09:37:22;40.60;;;38.60;;
23082;SDS011;11709;52.420;10.538;2023-04-19T09:41:13;39.53;;;37.58;;
23082;SDS011;11709;52.420;10.538;2023-04-19T09:45:17;35.48;;;33.58;;
23082;SDS011;11709;52.420;10.538;2023-04-19T09:49:21;53.35;;;50.78;;
23082;SDS011;11709;52.420;10.538;2023-04-19T09:53:25;30.45;;;28.80;;
23082;SDS011;11709;52.420;10.538;2023-04-19T09:57:28;23.38;;;21.97;;
23082;SDS011;11709;52.420;10.538;2023-04-19T10:01:35;25.80;;;24.07;;
23082;SDS011;11709;52.420;10.538;2023-04-19T10:05:42;24.18;;;22.82;;
23082;SDS011;11709;52.420;10.538;2023-04-19T10:09:45;40.50;;;38.30;;
23082;SDS011;11709;52.420;10.538;2023-04-19T10:13:51;360.93;;;342.18;;
23082;SDS011;11709;52.420;10.538;2023-04-19T10:17:56;589.07;;;545.50;;
23082;SDS011;11709;52.420;10.538;2023-04-19T10:21:58;373.85;;;350.13;;
23082;SDS011;11709;52.420;10.538;2023-04-19T10:26:03;498.05;;;459.80;;
23082;SDS011;11709;52.420;10.538;2023-04-19T10:30:15;539.60;;;499.90;;
23082;SDS011;11709;52.420;10.538;2023-04-19T10:42:17;421.98;;;383.98;;
23082;SDS011;11709;52.420;10.538;2023-04-19T10:50:25;311.40;;;284.10;;
23082;SDS011;11709;52.420;10.538;2023-04-19T10:54:34;393.17;;;355.07;;
23082;SDS011;11709;52.420;10.538;2023-04-19T11:11:53;475.85;;;431.15;;
23082;SDS011;11709;52.420;10.538;2023-04-19T11:15:57;477.37;;;437.60;;
23082;SDS011;11709;52.420;10.538;2023-04-19T11:20:05;482.70;;;443.50;;
23082;SDS011;11709;52.420;10.538;2023-04-19T11:24:09;462.43;;;423.07;;
23082;SDS011;11709;52.420;10.538;2023-04-19T11:28:14;413.93;;;374.87;;
23082;SDS011;11709;52.420;10.538;2023-04-19T11:32:19;318.17;;;290.80;;
23082;SDS011;11709;52.420;10.538;2023-04-19T11:36:22;391.83;;;353.23;;
23082;SDS011;11709;52.420;10.538;2023-04-19T11:40:24;473.47;;;432.67;;
23082;SDS011;11709;52.420;10.538;2023-04-19T11:44:27;449.13;;;409.27;;
23082;SDS011;11709;52.420;10.538;2023-04-19T11:48:30;468.10;;;425.27;;
23082;SDS011;11709;52.420;10.538;2023-04-19T11:52:33;448.27;;;407.67;;
23082;SDS011;11709;52.420;10.538;2023-04-19T11:56:36;441.53;;;399.07;;
23082;SDS011;11709;52.420;10.538;2023-04-19T12:00:45;295.27;;;268.65;;
23082;SDS011;11709;52.420;10.538;2023-04-19T12:04:47;277.40;;;251.13;;
23082;SDS011;11709;52.420;10.538;2023-04-19T12:08:50;419.50;;;379.43;;
23082;SDS011;11709;52.420;10.538;2023-04-19T12:12:54;472.47;;;431.70;;
23082;SDS011;11709;52.420;10.538;2023-04-19T12:17:06;403.33;;;364.63;;
23082;SDS011;11709;52.420;10.538;2023-04-19T12:25:28;368.63;;;340.27;;
23082;SDS011;11709;52.420;10.538;2023-04-19T12:33:34;430.33;;;392.40;;
23082;SDS011;11709;52.420;10.538;2023-04-19T12:37:36;436.00;;;397.07;;
23082;SDS011;11709;52.420;10.538;2023-04-19T12:41:39;454.60;;;415.20;;
23082;SDS011;11709;52.420;10.538;2023-04-19T12:45:41;451.17;;;412.03;;
23082;SDS011;11709;52.420;10.538;2023-04-19T12:49:44;425.03;;;386.30;;
23082;SDS011;11709;52.420;10.538;2023-04-19T12:53:51;409.80;;;371.17;;
23082;SDS011;11709;52.420;10.538;2023-04-19T12:57:50;401.70;;;363.20;;
23082;SDS011;11709;52.420;10.538;2023-04-19T13:01:53;400.73;;;362.80;;
23082;SDS011;11709;52.420;10.538;2023-04-19T13:05:55;420.10;;;381.57;;
23082;SDS011;11709;52.420;10.538;2023-04-19T13:09:58;416.10;;;377.43;;
23082;SDS011;11709;52.420;10.538;2023-04-19T13:14:00;405.27;;;366.80;;
23082;SDS011;11709;52.420;10.538;2023-04-19T13:18:03;315.00;;;286.67;;
23082;SDS011;11709;52.420;10.538;2023-04-19T13:22:05;326.37;;;298.43;;
23082;SDS011;11709;52.420;10.538;2023-04-19T13:26:08;397.60;;;358.97;;
23082;SDS011;11709;52.420;10.538;2023-04-19T13:30:11;390.17;;;351.97;;
23082;SDS011;11709;52.420;10.538;2023-04-19T13:34:14;428.57;;;389.90;;
23082;SDS011;11709;52.420;10.538;2023-04-19T13:38:17;436.03;;;396.70;;
23082;SDS011;11709;52.420;10.538;2023-04-19T13:42:19;448.37;;;407.77;;
23082;SDS011;11709;52.420;10.538;2023-04-19T13:46:23;404.60;;;366.37;;
23082;SDS011;11709;52.420;10.538;2023-04-19T13:50:25;130.77;;;125.23;;
23082;SDS011;11709;52.420;10.538;2023-04-19T13:54:28;134.43;;;128.70;;
23082;SDS011;11709;52.420;10.538;2023-04-19T13:58:30;148.60;;;142.27;;
23082;SDS011;11709;52.420;10.538;2023-04-19T14:02:33;161.03;;;154.17;;
23082;SDS011;11709;52.420;10.538;2023-04-19T14:06:35;180.67;;;169.50;;
23082;SDS011;11709;52.420;10.538;2023-04-19T14:10:38;340.87;;;313.03;;
23082;SDS011;11709;52.420;10.538;2023-04-19T14:14:41;188.30;;;176.90;;
23082;SDS011;11709;52.420;10.538;2023-04-19T14:18:43;327.70;;;300.63;;
23082;SDS011;11709;52.420;10.538;2023-04-19T14:22:46;441.13;;;402.83;;
23082;SDS011;11709;52.420;10.538;2023-04-19T14:26:48;396.33;;;358.67;;
23082;SDS011;11709;52.420;10.538;2023-04-19T14:30:51;304.77;;;276.87;;
23082;SDS011;11709;52.420;10.538;2023-04-19T14:34:53;281.63;;;254.20;;
23082;SDS011;11709;52.420;10.538;2023-04-19T14:38:57;137.18;;;129.20;;
23082;SDS011;11709;52.420;10.538;2023-04-19T14:43:00;261.73;;;235.03;;
23082;SDS011;11709;52.420;10.538;2023-04-19T14:47:02;242.60;;;216.07;;
23082;SDS011;11709;52.420;10.538;2023-04-19T14:51:05;235.68;;;210.95;;
23082;SDS011;11709;52.420;10.538;2023-04-19T14:55:08;250.27;;;224.10;;
23082;SDS011;11709;52.420;10.538;2023-04-19T14:59:11;309.77;;;287.05;;
23082;SDS011;11709;52.420;10.538;2023-04-19T15:03:14;348.67;;;308.90;;
23082;SDS011;11709;52.420;10.538;2023-04-19T15:07:17;223.05;;;182.62;;
23082;SDS011;11709;52.420;10.538;2023-04-19T15:11:19;226.32;;;199.05;;
23082;SDS011;11709;52.420;10.538;2023-04-19T15:15:22;408.57;;;369.90;;
23082;SDS011;11709;52.420;10.538;2023-04-19T15:19:24;323.93;;;295.73;;
23082;SDS011;11709;52.420;10.538;2023-04-19T15:23:28;273.27;;;246.53;;
23082;SDS011;11709;52.420;10.538;2023-04-19T15:27:31;247.57;;;220.80;;
23082;SDS011;11709;52.420;10.538;2023-04-19T15:31:34;224.00;;;189.93;;
23082;SDS011;11709;52.420;10.538;2023-04-19T15:35:37;219.20;;;189.93;;
23082;SDS011;11709;52.420;10.538;2023-04-19T15:39:40;224.35;;;189.45;;
23082;SDS011;11709;52.420;10.538;2023-04-19T15:43:43;225.43;;;194.05;;
23082;SDS011;11709;52.420;10.538;2023-04-19T15:47:45;123.97;;;116.67;;
23082;SDS011;11709;52.420;10.538;2023-04-19T15:51:48;175.17;;;157.27;;
23082;SDS011;11709;52.420;10.538;2023-04-19T15:55:50;102.63;;;98.23;;
23082;SDS011;11709;52.420;10.538;2023-04-19T15:59:53;99.17;;;94.87;;
23082;SDS011;11709;52.420;10.538;2023-04-19T16:03:55;96.83;;;92.70;;
23082;SDS011;11709;52.420;10.538;2023-04-19T16:08:00;97.70;;;93.33;;
23082;SDS011;11709;52.420;10.538;2023-04-19T16:12:04;89.57;;;85.67;;
23082;SDS011;11709;52.420;10.538;2023-04-19T16:16:06;91.37;;;87.37;;
23082;SDS011;11709;52.420;10.538;2023-04-19T16:20:11;88.23;;;84.30;;
23082;SDS011;11709;52.420;10.538;2023-04-19T16:24:14;97.43;;;92.93;;
23082;SDS011;11709;52.420;10.538;2023-04-19T16:28:18;109.80;;;104.97;;
23082;SDS011;11709;52.420;10.538;2023-04-19T16:32:20;111.63;;;106.73;;
23082;SDS011;11709;52.420;10.538;2023-04-19T16:36:23;154.37;;;143.77;;
23082;SDS011;11709;52.420;10.538;2023-04-19T16:40:25;414.53;;;377.27;;
23082;SDS011;11709;52.420;10.538;2023-04-19T16:44:28;407.87;;;370.93;;
23082;SDS011;11709;52.420;10.538;2023-04-19T16:48:30;418.53;;;381.17;;
23082;SDS011;11709;52.420;10.538;2023-04-19T16:52:33;384.73;;;348.57;;
23082;SDS011;11709;52.420;10.538;2023-04-19T16:56:36;291.60;;;264.37;;
23082;SDS011;11709;52.420;10.538;2023-04-19T17:00:38;395.73;;;359.33;;
23082;SDS011;11709;52.420;10.538;2023-04-19T17:04:41;308.73;;;281.90;;
23082;SDS011;11709;52.420;10.538;2023-04-19T17:08:43;279.67;;;253.23;;
23082;SDS011;11709;52.420;10.538;2023-04-19T17:12:46;398.00;;;361.70;;
23082;SDS011;11709;52.420;10.538;2023-04-19T17:16:49;262.10;;;238.47;;
23082;SDS011;11709;52.420;10.538;2023-04-19T17:20:52;219.60;;;201.67;;
23082;SDS011;11709;52.420;10.538;2023-04-19T17:24:54;459.97;;;420.87;;
23082;SDS011;11709;52.420;10.538;2023-04-19T17:28:58;281.60;;;260.83;;
23082;SDS011;11709;52.420;10.538;2023-04-19T17:33:01;389.45;;;350.40;;
23082;SDS011;11709;52.420;10.538;2023-04-19T17:37:04;302.23;;;275.87;;
23082;SDS011;11709;52.420;10.538;2023-04-19T17:41:06;128.03;;;122.10;;
23082;SDS011;11709;52.420;10.538;2023-04-19T17:45:16;66.77;;;62.85;;
23082;SDS011;11709;52.420;10.538;2023-04-19T17:49:14;86.17;;;82.00;;
23082;SDS011;11709;52.420;10.538;2023-04-19T17:53:19;82.57;;;78.67;;
23082;SDS011;11709;52.420;10.538;2023-04-19T17:57:21;30.57;;;29.10;;
23082;SDS011;11709;52.420;10.538;2023-04-19T18:01:24;425.25;;;388.27;;
23082;SDS011;11709;52.420;10.538;2023-04-19T18:05:27;370.27;;;335.67;;
23082;SDS011;11709;52.420;10.538;2023-04-19T18:09:29;326.90;;;293.33;;
23082;SDS011;11709;52.420;10.538;2023-04-19T18:13:32;207.80;;;183.65;;
23082;SDS011;11709;52.420;10.538;2023-04-19T18:17:36;107.73;;;102.83;;
23082;SDS011;11709;52.420;10.538;2023-04-19T18:21:38;74.12;;;70.52;;
23082;SDS011;11709;52.420;10.538;2023-04-19T18:25:41;78.87;;;75.25;;
23082;SDS011;11709;52.420;10.538;2023-04-19T18:29:43;52.23;;;49.75;;
23082;SDS011;11709;52.420;10.538;2023-04-19T18:33:46;47.15;;;44.98;;
23082;SDS011;11709;52.420;10.538;2023-04-19T18:41:50;52.85;;;50.38;;
23082;SDS011;11709;52.420;10.538;2023-04-19T18:45:58;108.70;;;103.63;;
23082;SDS011;11709;52.420;10.538;2023-04-19T18:53:59;19.12;;;18.07;;
23082;SDS011;11709;52.420;10.538;2023-04-19T19:06:08;11.10;;;10.40;;
23082;SDS011;11709;52.420;10.538;2023-04-19T19:14:12;18.60;;;17.50;;
23082;SDS011;11709;52.420;10.538;2023-04-19T19:22:17;7.62;;;7.05;;
23082;SDS011;11709;52.420;10.538;2023-04-19T19:26:19;224.47;;;159.12;;
23082;SDS011;11709;52.420;10.538;2023-04-19T19:34:29;21.03;;;19.47;;
23082;SDS011;11709;52.420;10.538;2023-04-19T19:42:36;23.40;;;22.10;;
23082;SDS011;11709;52.420;10.538;2023-04-19T19:46:42;399.90;;;365.68;;
23082;SDS011;11709;52.420;10.538;2023-04-19T19:50:47;305.73;;;281.57;;
23082;SDS011;11709;52.420;10.538;2023-04-19T19:54:50;277.37;;;253.20;;
23082;SDS011;11709;52.420;10.538;2023-04-19T19:58:53;237.57;;;213.97;;
23082;SDS011;11709;52.420;10.538;2023-04-19T20:02:55;228.63;;;111.90;;
23082;SDS011;11709;52.420;10.538;2023-04-19T20:06:58;385.87;;;351.97;;
23082;SDS011;11709;52.420;10.538;2023-04-19T20:11:00;237.80;;;160.17;;
23082;SDS011;11709;52.420;10.538;2023-04-19T20:15:03;53.52;;;50.28;;
23082;SDS011;11709;52.420;10.538;2023-04-19T20:19:08;50.52;;;47.38;;
23082;SDS011;11709;52.420;10.538;2023-04-19T20:23:11;176.10;;;95.20;;
23082;SDS011;11709;52.420;10.538;2023-04-19T20:27:15;469.93;;;433.43;;
23082;SDS011;11709;52.420;10.538;2023-04-19T20:31:18;272.20;;;240.03;;
23082;SDS011;11709;52.420;10.538;2023-04-19T20:35:20;48.93;;;46.70;;
23082;SDS011;11709;52.420;10.538;2023-04-19T20:39:23;46.30;;;44.10;;
23082;SDS011;11709;52.420;10.538;2023-04-19T20:43:26;34.03;;;25.20;;
23082;SDS011;11709;52.420;10.538;2023-04-19T20:47:28;40.23;;;37.90;;
23082;SDS011;11709;52.420;10.538;2023-04-19T20:51:31;228.47;;;160.40;;
23082;SDS011;11709;52.420;10.538;2023-04-19T20:55:34;90.87;;;85.23;;
23082;SDS011;11709;52.420;10.538;2023-04-19T20:59:38;449.92;;;412.08;;
23082;SDS011;11709;52.420;10.538;2023-04-19T21:03:40;205.10;;;81.30;;
23082;SDS011;11709;52.420;10.538;2023-04-19T21:07:43;23.85;;;22.60;;
23082;SDS011;11709;52.420;10.538;2023-04-19T21:11:49;18.73;;;17.52;;
23082;SDS011;11709;52.420;10.538;2023-04-19T21:15:53;15.65;;;14.65;;
23082;SDS011;11709;52.420;10.538;2023-04-19T21:19:56;43.78;;;16.52;;
23082;SDS011;11709;52.420;10.538;2023-04-19T21:23:58;12.20;;;11.15;;
23082;SDS011;11709;52.420;10.538;2023-04-19T21:28:01;18.25;;;12.28;;
23082;SDS011;11709;52.420;10.538;2023-04-19T21:32:03;17.42;;;13.70;;
23082;SDS011;11709;52.420;10.538;2023-04-19T21:36:06;36.40;;;17.60;;
23082;SDS011;11709;52.420;10.538;2023-04-19T21:40:10;14.73;;;13.20;;
23082;SDS011;11709;52.420;10.538;2023-04-19T21:44:13;15.03;;;13.93;;
23082;SDS011;11709;52.420;10.538;2023-04-19T21:48:15;14.03;;;12.93;;
23082;SDS011;11709;52.420;10.538;2023-04-19T21:52:18;14.50;;;13.58;;
23082;SDS011;11709;52.420;10.538;2023-04-19T21:56:20;15.32;;;14.13;;
23082;SDS011;11709;52.420;10.538;2023-04-19T22:00:24;18.52;;;17.42;;
23082;SDS011;11709;52.420;10.538;2023-04-19T22:04:27;14.18;;;13.03;;
23082;SDS011;11709;52.420;10.538;2023-04-19T22:08:30;11.68;;;10.93;;
23082;SDS011;11709;52.420;10.538;2023-04-19T22:12:34;12.98;;;12.10;;
23082;SDS011;11709;52.420;10.538;2023-04-19T22:16:38;9.18;;;8.25;;
23082;SDS011;11709;52.420;10.538;2023-04-19T22:20:41;12.18;;;11.08;;
23082;SDS011;11709;52.420;10.538;2023-04-19T22:24:47;12.30;;;11.50;;
23082;SDS011;11709;52.420;10.538;2023-04-19T22:28:49;17.77;;;16.32;;
23082;SDS011;11709;52.420;10.538;2023-04-19T22:32:53;11.68;;;10.78;;
23082;SDS011;11709;52.420;10.538;2023-04-19T22:36:56;13.43;;;12.20;;
23082;SDS011;11709;52.420;10.538;2023-04-19T22:40:58;12.35;;;11.22;;
23082;SDS011;11709;52.420;10.538;2023-04-19T22:45:01;22.27;;;15.10;;
23082;SDS011;11709;52.420;10.538;2023-04-19T22:49:04;15.85;;;7.83;;
23082;SDS011;11709;52.420;10.538;2023-04-19T22:53:13;53.23;;;18.20;;
23082;SDS011;11709;52.420;10.538;2023-04-19T22:57:12;55.48;;;20.02;;
23082;SDS011;11709;52.420;10.538;2023-04-19T23:01:19;65.87;;;20.32;;
23082;SDS011;11709;52.420;10.538;2023-04-19T23:05:19;69.82;;;20.88;;
23082;SDS011;11709;52.420;10.538;2023-04-19T23:09:21;14.15;;;9.05;;
23082;SDS011;11709;52.420;10.538;2023-04-19T23:13:24;23.18;;;11.78;;
23082;SDS011;11709;52.420;10.538;2023-04-19T23:17:26;28.98;;;13.68;;
23082;SDS011;11709;52.420;10.538;2023-04-19T23:21:29;23.98;;;11.18;;
23082;SDS011;11709;52.420;10.538;2023-04-19T23:25:31;19.80;;;12.25;;
23082;SDS011;11709;52.420;10.538;2023-04-19T23:29:34;29.65;;;12.85;;
23082;SDS011;11709;52.420;10.538;2023-04-19T23:33:36;57.70;;;18.52;;
23082;SDS011;11709;52.420;10.538;2023-04-19T23:37:39;31.95;;;13.38;;
23082;SDS011;11709;52.420;10.538;2023-04-19T23:41:41;26.97;;;12.82;;
23082;SDS011;11709;52.420;10.538;2023-04-19T23:45:44;30.20;;;13.48;;
23082;SDS011;11709;52.420;10.538;2023-04-19T23:49:46;27.25;;;14.73;;
23082;SDS011;11709;52.420;10.538;2023-04-19T23:53:49;23.32;;;14.87;;
23082;SDS011;11709;52.420;10.538;2023-04-19T23:57:51;27.87;;;17.32;;
